Terminal Aerodrome Forecast
Issued by NWS Albany, NY

Home | Current Version | Previous Version | Text Only | Print | Product List | Glossary On
Versions: 1 2 3 4 5 6 7 8 9 10 11 12 13 14 15 16
000
FTUS41 KALY 261747
TAFPOU
TAF
KPOU 261747Z 2618/2718 VRB03KT P6SM FEW050 SCT100 BKN250
     FM262000 21005KT P6SM SCT050 SCT100
     FM262300 VRB03KT P6SM SCT050 BKN100
     FM270800 00000KT 6SM HZ SCT050 BKN100
     FM271300 19005KT P6SM SCT050 SCT250=

USA.gov is the U.S. government's official web portal to all federal, state and local government web resources and services.